sensor_id;sensor_type;location;lat;lon;timestamp;P1;durP1;ratioP1;P2;durP2;ratioP2
17741;SDS011;8993;51.822;-2.268;2022-07-29T00:02:38;3.19;;;0.80;;
17741;SDS011;8993;51.822;-2.268;2022-07-29T00:07:43;3.56;;;0.81;;
17741;SDS011;8993;51.822;-2.268;2022-07-29T00:12:47;4.43;;;0.93;;
17741;SDS011;8993;51.822;-2.268;2022-07-29T00:17:51;5.36;;;0.91;;
17741;SDS011;8993;51.822;-2.268;2022-07-29T00:22:56;3.62;;;0.88;;
17741;SDS011;8993;51.822;-2.268;2022-07-29T00:28:00;3.77;;;0.87;;
17741;SDS011;8993;51.822;-2.268;2022-07-29T00:33:04;6.79;;;1.07;;
17741;SDS011;8993;51.822;-2.268;2022-07-29T00:38:09;2.51;;;0.84;;
17741;SDS011;8993;51.822;-2.268;2022-07-29T00:43:14;3.01;;;0.87;;
17741;SDS011;8993;51.822;-2.268;2022-07-29T00:48:18;2.76;;;0.91;;
17741;SDS011;8993;51.822;-2.268;2022-07-29T00:53:22;3.83;;;0.78;;
17741;SDS011;8993;51.822;-2.268;2022-07-29T00:58:27;5.27;;;1.22;;
17741;SDS011;8993;51.822;-2.268;2022-07-29T01:03:31;8.30;;;1.02;;
17741;SDS011;8993;51.822;-2.268;2022-07-29T01:18:48;4.69;;;1.08;;
17741;SDS011;8993;51.822;-2.268;2022-07-29T01:23:56;2.85;;;0.98;;
17741;SDS011;8993;51.822;-2.268;2022-07-29T01:34:04;3.81;;;0.99;;
17741;SDS011;8993;51.822;-2.268;2022-07-29T01:39:08;4.92;;;0.96;;
17741;SDS011;8993;51.822;-2.268;2022-07-29T01:44:13;4.03;;;0.90;;
17741;SDS011;8993;51.822;-2.268;2022-07-29T01:49:21;3.57;;;0.99;;
17741;SDS011;8993;51.822;-2.268;2022-07-29T01:54:29;2.95;;;1.04;;
17741;SDS011;8993;51.822;-2.268;2022-07-29T01:59:29;4.64;;;1.07;;
17741;SDS011;8993;51.822;-2.268;2022-07-29T02:04:34;3.95;;;1.05;;
17741;SDS011;8993;51.822;-2.268;2022-07-29T02:09:38;4.28;;;1.17;;
17741;SDS011;8993;51.822;-2.268;2022-07-29T02:14:43;4.83;;;1.05;;
17741;SDS011;8993;51.822;-2.268;2022-07-29T02:19:47;4.67;;;1.19;;
17741;SDS011;8993;51.822;-2.268;2022-07-29T02:24:51;3.61;;;1.16;;
17741;SDS011;8993;51.822;-2.268;2022-07-29T02:29:55;4.00;;;1.10;;
17741;SDS011;8993;51.822;-2.268;2022-07-29T02:35:05;6.39;;;1.21;;
17741;SDS011;8993;51.822;-2.268;2022-07-29T02:40:09;3.11;;;1.02;;
17741;SDS011;8993;51.822;-2.268;2022-07-29T02:45:13;3.28;;;1.00;;
17741;SDS011;8993;51.822;-2.268;2022-07-29T02:50:19;4.39;;;1.21;;
17741;SDS011;8993;51.822;-2.268;2022-07-29T02:55:22;5.04;;;1.29;;
17741;SDS011;8993;51.822;-2.268;2022-07-29T03:00:26;4.98;;;1.26;;
17741;SDS011;8993;51.822;-2.268;2022-07-29T03:05:30;4.34;;;1.36;;
17741;SDS011;8993;51.822;-2.268;2022-07-29T03:10:35;5.11;;;1.36;;
17741;SDS011;8993;51.822;-2.268;2022-07-29T03:15:39;4.76;;;1.29;;
17741;SDS011;8993;51.822;-2.268;2022-07-29T03:20:44;8.09;;;1.51;;
17741;SDS011;8993;51.822;-2.268;2022-07-29T03:25:48;4.42;;;1.34;;
17741;SDS011;8993;51.822;-2.268;2022-07-29T03:30:52;3.82;;;1.44;;
17741;SDS011;8993;51.822;-2.268;2022-07-29T03:35:57;4.44;;;1.37;;
17741;SDS011;8993;51.822;-2.268;2022-07-29T03:41:02;7.58;;;1.65;;
17741;SDS011;8993;51.822;-2.268;2022-07-29T03:46:08;4.21;;;1.34;;
17741;SDS011;8993;51.822;-2.268;2022-07-29T03:51:12;4.53;;;1.41;;
17741;SDS011;8993;51.822;-2.268;2022-07-29T03:56:18;5.36;;;1.35;;
17741;SDS011;8993;51.822;-2.268;2022-07-29T04:01:23;8.30;;;1.45;;
17741;SDS011;8993;51.822;-2.268;2022-07-29T04:06:27;7.37;;;1.49;;
17741;SDS011;8993;51.822;-2.268;2022-07-29T04:11:31;6.10;;;1.59;;
17741;SDS011;8993;51.822;-2.268;2022-07-29T04:16:35;4.94;;;1.36;;
17741;SDS011;8993;51.822;-2.268;2022-07-29T04:21:40;6.07;;;1.55;;
17741;SDS011;8993;51.822;-2.268;2022-07-29T04:26:45;6.87;;;1.45;;
17741;SDS011;8993;51.822;-2.268;2022-07-29T04:31:48;4.97;;;1.37;;
17741;SDS011;8993;51.822;-2.268;2022-07-29T04:36:52;5.73;;;1.36;;
17741;SDS011;8993;51.822;-2.268;2022-07-29T04:41:56;4.74;;;1.41;;
17741;SDS011;8993;51.822;-2.268;2022-07-29T04:47:01;5.05;;;1.32;;
17741;SDS011;8993;51.822;-2.268;2022-07-29T04:52:05;4.72;;;1.17;;
17741;SDS011;8993;51.822;-2.268;2022-07-29T04:57:09;4.41;;;1.24;;
17741;SDS011;8993;51.822;-2.268;2022-07-29T05:02:14;5.02;;;1.32;;
17741;SDS011;8993;51.822;-2.268;2022-07-29T05:07:18;4.12;;;1.26;;
17741;SDS011;8993;51.822;-2.268;2022-07-29T05:12:22;4.07;;;1.11;;
17741;SDS011;8993;51.822;-2.268;2022-07-29T05:17:27;4.01;;;1.08;;
17741;SDS011;8993;51.822;-2.268;2022-07-29T05:22:31;3.94;;;1.25;;
17741;SDS011;8993;51.822;-2.268;2022-07-29T05:27:37;2.02;;;0.95;;
17741;SDS011;8993;51.822;-2.268;2022-07-29T05:32:41;3.86;;;1.22;;
17741;SDS011;8993;51.822;-2.268;2022-07-29T05:42:52;8.37;;;2.18;;
17741;SDS011;8993;51.822;-2.268;2022-07-29T05:47:57;5.94;;;2.01;;
17741;SDS011;8993;51.822;-2.268;2022-07-29T05:53:02;4.70;;;1.64;;
17741;SDS011;8993;51.822;-2.268;2022-07-29T05:58:06;8.57;;;2.18;;
17741;SDS011;8993;51.822;-2.268;2022-07-29T06:03:11;5.69;;;2.20;;
17741;SDS011;8993;51.822;-2.268;2022-07-29T06:08:16;3.92;;;1.85;;
17741;SDS011;8993;51.822;-2.268;2022-07-29T06:13:20;7.33;;;2.04;;
17741;SDS011;8993;51.822;-2.268;2022-07-29T06:18:25;8.09;;;2.03;;
17741;SDS011;8993;51.822;-2.268;2022-07-29T06:23:29;6.57;;;1.90;;
17741;SDS011;8993;51.822;-2.268;2022-07-29T06:28:33;4.96;;;1.55;;
17741;SDS011;8993;51.822;-2.268;2022-07-29T06:33:38;5.86;;;1.16;;
17741;SDS011;8993;51.822;-2.268;2022-07-29T06:43:48;10.04;;;1.53;;
17741;SDS011;8993;51.822;-2.268;2022-07-29T06:48:52;4.81;;;1.12;;
17741;SDS011;8993;51.822;-2.268;2022-07-29T06:53:56;5.24;;;1.20;;
17741;SDS011;8993;51.822;-2.268;2022-07-29T06:59:00;6.85;;;1.27;;
17741;SDS011;8993;51.822;-2.268;2022-07-29T07:04:04;4.17;;;1.16;;
17741;SDS011;8993;51.822;-2.268;2022-07-29T07:09:08;6.98;;;1.65;;
17741;SDS011;8993;51.822;-2.268;2022-07-29T07:14:13;6.23;;;1.30;;
17741;SDS011;8993;51.822;-2.268;2022-07-29T07:19:17;4.99;;;1.04;;
17741;SDS011;8993;51.822;-2.268;2022-07-29T07:24:21;6.52;;;1.02;;
17741;SDS011;8993;51.822;-2.268;2022-07-29T07:29:26;4.49;;;0.89;;
17741;SDS011;8993;51.822;-2.268;2022-07-29T07:34:30;8.02;;;1.06;;
17741;SDS011;8993;51.822;-2.268;2022-07-29T07:39:34;7.97;;;1.19;;
17741;SDS011;8993;51.822;-2.268;2022-07-29T07:44:39;4.35;;;0.98;;
17741;SDS011;8993;51.822;-2.268;2022-07-29T07:49:43;6.42;;;1.09;;
17741;SDS011;8993;51.822;-2.268;2022-07-29T07:54:47;6.53;;;1.03;;
17741;SDS011;8993;51.822;-2.268;2022-07-29T07:59:51;6.62;;;1.05;;
17741;SDS011;8993;51.822;-2.268;2022-07-29T08:04:56;6.44;;;0.96;;
17741;SDS011;8993;51.822;-2.268;2022-07-29T08:10:01;5.53;;;1.04;;
17741;SDS011;8993;51.822;-2.268;2022-07-29T08:15:06;4.81;;;1.06;;
17741;SDS011;8993;51.822;-2.268;2022-07-29T08:20:09;6.21;;;1.01;;
17741;SDS011;8993;51.822;-2.268;2022-07-29T08:25:15;6.23;;;1.06;;
17741;SDS011;8993;51.822;-2.268;2022-07-29T08:30:19;4.54;;;1.05;;
17741;SDS011;8993;51.822;-2.268;2022-07-29T08:35:25;7.36;;;1.10;;
17741;SDS011;8993;51.822;-2.268;2022-07-29T08:40:29;4.28;;;0.91;;
17741;SDS011;8993;51.822;-2.268;2022-07-29T08:45:42;4.76;;;1.02;;
17741;SDS011;8993;51.822;-2.268;2022-07-29T08:50:43;8.68;;;1.21;;
17741;SDS011;8993;51.822;-2.268;2022-07-29T08:55:49;5.45;;;1.03;;
17741;SDS011;8993;51.822;-2.268;2022-07-29T09:00:54;5.51;;;1.17;;
17741;SDS011;8993;51.822;-2.268;2022-07-29T09:05:58;9.33;;;1.18;;
17741;SDS011;8993;51.822;-2.268;2022-07-29T09:11:02;5.14;;;0.95;;
17741;SDS011;8993;51.822;-2.268;2022-07-29T09:16:07;4.14;;;0.96;;
17741;SDS011;8993;51.822;-2.268;2022-07-29T09:21:12;6.34;;;1.11;;
17741;SDS011;8993;51.822;-2.268;2022-07-29T09:26:15;7.36;;;1.18;;
17741;SDS011;8993;51.822;-2.268;2022-07-29T09:31:19;6.03;;;1.08;;
17741;SDS011;8993;51.822;-2.268;2022-07-29T09:36:24;6.35;;;1.13;;
17741;SDS011;8993;51.822;-2.268;2022-07-29T09:41:28;6.23;;;1.17;;
17741;SDS011;8993;51.822;-2.268;2022-07-29T09:46:33;5.74;;;1.00;;
17741;SDS011;8993;51.822;-2.268;2022-07-29T09:51:37;5.92;;;1.11;;
17741;SDS011;8993;51.822;-2.268;2022-07-29T09:56:42;7.07;;;1.00;;
17741;SDS011;8993;51.822;-2.268;2022-07-29T10:01:46;5.87;;;1.03;;
17741;SDS011;8993;51.822;-2.268;2022-07-29T10:06:59;4.25;;;1.23;;
17741;SDS011;8993;51.822;-2.268;2022-07-29T10:12:02;4.89;;;1.15;;
17741;SDS011;8993;51.822;-2.268;2022-07-29T10:17:01;4.91;;;1.08;;
17741;SDS011;8993;51.822;-2.268;2022-07-29T10:22:06;6.62;;;1.21;;
17741;SDS011;8993;51.822;-2.268;2022-07-29T10:27:09;5.30;;;1.26;;
17741;SDS011;8993;51.822;-2.268;2022-07-29T10:32:19;7.38;;;1.48;;
17741;SDS011;8993;51.822;-2.268;2022-07-29T10:37:20;6.41;;;1.23;;
17741;SDS011;8993;51.822;-2.268;2022-07-29T10:42:25;6.95;;;1.15;;
17741;SDS011;8993;51.822;-2.268;2022-07-29T10:47:28;6.28;;;1.36;;
17741;SDS011;8993;51.822;-2.268;2022-07-29T10:53:03;4.98;;;1.13;;
17741;SDS011;8993;51.822;-2.268;2022-07-29T10:57:36;21.51;;;2.85;;
17741;SDS011;8993;51.822;-2.268;2022-07-29T11:02:41;4.93;;;1.24;;
17741;SDS011;8993;51.822;-2.268;2022-07-29T11:08:17;4.44;;;1.13;;
17741;SDS011;8993;51.822;-2.268;2022-07-29T11:12:50;2.96;;;0.92;;
17741;SDS011;8993;51.822;-2.268;2022-07-29T11:18:09;7.15;;;1.15;;
17741;SDS011;8993;51.822;-2.268;2022-07-29T11:22:58;6.32;;;1.16;;
17741;SDS011;8993;51.822;-2.268;2022-07-29T11:28:09;4.67;;;1.02;;
17741;SDS011;8993;51.822;-2.268;2022-07-29T11:33:07;7.59;;;1.12;;
17741;SDS011;8993;51.822;-2.268;2022-07-29T11:38:28;6.80;;;1.08;;
17741;SDS011;8993;51.822;-2.268;2022-07-29T11:43:28;3.68;;;0.94;;
17741;SDS011;8993;51.822;-2.268;2022-07-29T11:48:22;2.69;;;0.84;;
17741;SDS011;8993;51.822;-2.268;2022-07-29T11:53:26;4.56;;;1.14;;
17741;SDS011;8993;51.822;-2.268;2022-07-29T11:58:30;4.52;;;1.00;;
17741;SDS011;8993;51.822;-2.268;2022-07-29T12:03:34;4.60;;;0.86;;
17741;SDS011;8993;51.822;-2.268;2022-07-29T12:08:39;27.44;;;2.67;;
17741;SDS011;8993;51.822;-2.268;2022-07-29T12:13:42;4.56;;;0.93;;
17741;SDS011;8993;51.822;-2.268;2022-07-29T12:18:54;3.87;;;0.75;;
17741;SDS011;8993;51.822;-2.268;2022-07-29T12:23:52;5.65;;;0.86;;
17741;SDS011;8993;51.822;-2.268;2022-07-29T12:28:56;3.74;;;0.79;;
17741;SDS011;8993;51.822;-2.268;2022-07-29T12:34:01;4.00;;;0.74;;
17741;SDS011;8993;51.822;-2.268;2022-07-29T12:39:05;3.79;;;0.75;;
17741;SDS011;8993;51.822;-2.268;2022-07-29T12:44:09;4.39;;;0.80;;
17741;SDS011;8993;51.822;-2.268;2022-07-29T12:49:20;2.44;;;0.64;;
17741;SDS011;8993;51.822;-2.268;2022-07-29T12:54:18;3.87;;;0.77;;
17741;SDS011;8993;51.822;-2.268;2022-07-29T12:59:22;3.21;;;0.82;;
17741;SDS011;8993;51.822;-2.268;2022-07-29T13:04:27;3.16;;;0.74;;
17741;SDS011;8993;51.822;-2.268;2022-07-29T13:09:38;3.65;;;0.66;;
17741;SDS011;8993;51.822;-2.268;2022-07-29T13:14:36;4.18;;;0.74;;
17741;SDS011;8993;51.822;-2.268;2022-07-29T13:19:40;2.85;;;0.65;;
17741;SDS011;8993;51.822;-2.268;2022-07-29T13:24:46;4.51;;;0.77;;
17741;SDS011;8993;51.822;-2.268;2022-07-29T13:29:49;3.27;;;0.65;;
17741;SDS011;8993;51.822;-2.268;2022-07-29T13:34:56;4.17;;;0.77;;
17741;SDS011;8993;51.822;-2.268;2022-07-29T13:40:00;5.97;;;0.85;;
17741;SDS011;8993;51.822;-2.268;2022-07-29T13:45:05;5.47;;;0.82;;
17741;SDS011;8993;51.822;-2.268;2022-07-29T13:50:09;3.89;;;0.82;;
17741;SDS011;8993;51.822;-2.268;2022-07-29T13:55:13;4.09;;;0.80;;
17741;SDS011;8993;51.822;-2.268;2022-07-29T14:00:17;3.18;;;0.74;;
17741;SDS011;8993;51.822;-2.268;2022-07-29T14:05:22;3.92;;;0.80;;
17741;SDS011;8993;51.822;-2.268;2022-07-29T14:10:26;3.49;;;0.67;;
17741;SDS011;8993;51.822;-2.268;2022-07-29T14:15:30;4.13;;;0.76;;
17741;SDS011;8993;51.822;-2.268;2022-07-29T14:20:35;3.28;;;0.70;;
17741;SDS011;8993;51.822;-2.268;2022-07-29T14:25:40;3.84;;;0.75;;
17741;SDS011;8993;51.822;-2.268;2022-07-29T14:30:45;4.19;;;0.71;;
17741;SDS011;8993;51.822;-2.268;2022-07-29T14:35:49;4.47;;;0.79;;
17741;SDS011;8993;51.822;-2.268;2022-07-29T14:40:53;3.48;;;0.78;;
17741;SDS011;8993;51.822;-2.268;2022-07-29T14:45:58;4.42;;;0.76;;
17741;SDS011;8993;51.822;-2.268;2022-07-29T14:51:02;4.12;;;0.68;;
17741;SDS011;8993;51.822;-2.268;2022-07-29T14:56:07;3.09;;;0.65;;
17741;SDS011;8993;51.822;-2.268;2022-07-29T15:01:10;2.39;;;0.77;;
17741;SDS011;8993;51.822;-2.268;2022-07-29T15:06:15;2.27;;;0.77;;
17741;SDS011;8993;51.822;-2.268;2022-07-29T15:11:19;2.13;;;0.67;;
17741;SDS011;8993;51.822;-2.268;2022-07-29T15:16:24;3.72;;;0.75;;
17741;SDS011;8993;51.822;-2.268;2022-07-29T15:21:28;9.12;;;0.98;;
17741;SDS011;8993;51.822;-2.268;2022-07-29T15:26:33;3.11;;;0.74;;
17741;SDS011;8993;51.822;-2.268;2022-07-29T15:31:37;3.70;;;0.69;;
17741;SDS011;8993;51.822;-2.268;2022-07-29T15:36:43;2.57;;;0.87;;
17741;SDS011;8993;51.822;-2.268;2022-07-29T15:41:47;3.16;;;0.79;;
17741;SDS011;8993;51.822;-2.268;2022-07-29T15:46:51;2.97;;;0.77;;
17741;SDS011;8993;51.822;-2.268;2022-07-29T15:51:55;5.70;;;0.89;;
17741;SDS011;8993;51.822;-2.268;2022-07-29T15:57:00;3.20;;;0.72;;
17741;SDS011;8993;51.822;-2.268;2022-07-29T16:02:04;3.87;;;0.87;;
17741;SDS011;8993;51.822;-2.268;2022-07-29T16:07:09;4.73;;;0.89;;
17741;SDS011;8993;51.822;-2.268;2022-07-29T16:12:13;2.88;;;0.79;;
17741;SDS011;8993;51.822;-2.268;2022-07-29T16:17:17;2.81;;;0.72;;
17741;SDS011;8993;51.822;-2.268;2022-07-29T16:22:21;6.37;;;1.02;;
17741;SDS011;8993;51.822;-2.268;2022-07-29T16:27:26;6.13;;;0.88;;
17741;SDS011;8993;51.822;-2.268;2022-07-29T16:32:30;3.42;;;0.81;;
17741;SDS011;8993;51.822;-2.268;2022-07-29T16:37:34;6.36;;;1.15;;
17741;SDS011;8993;51.822;-2.268;2022-07-29T16:42:39;3.60;;;0.94;;
17741;SDS011;8993;51.822;-2.268;2022-07-29T16:47:45;4.11;;;0.86;;
17741;SDS011;8993;51.822;-2.268;2022-07-29T16:52:48;3.13;;;0.83;;
17741;SDS011;8993;51.822;-2.268;2022-07-29T16:57:53;3.15;;;0.76;;
17741;SDS011;8993;51.822;-2.268;2022-07-29T17:02:57;3.58;;;0.90;;
17741;SDS011;8993;51.822;-2.268;2022-07-29T17:08:01;4.42;;;0.88;;
17741;SDS011;8993;51.822;-2.268;2022-07-29T17:13:06;3.55;;;0.73;;
17741;SDS011;8993;51.822;-2.268;2022-07-29T17:18:11;3.30;;;0.77;;
17741;SDS011;8993;51.822;-2.268;2022-07-29T17:23:15;4.11;;;0.78;;
17741;SDS011;8993;51.822;-2.268;2022-07-29T17:28:22;3.69;;;0.83;;
17741;SDS011;8993;51.822;-2.268;2022-07-29T17:33:26;2.88;;;0.71;;
17741;SDS011;8993;51.822;-2.268;2022-07-29T17:38:32;4.80;;;0.87;;
17741;SDS011;8993;51.822;-2.268;2022-07-29T17:43:37;3.20;;;0.85;;
17741;SDS011;8993;51.822;-2.268;2022-07-29T17:48:41;3.08;;;1.04;;
17741;SDS011;8993;51.822;-2.268;2022-07-29T17:53:45;2.09;;;0.65;;
17741;SDS011;8993;51.822;-2.268;2022-07-29T17:58:50;3.59;;;0.80;;
17741;SDS011;8993;51.822;-2.268;2022-07-29T18:03:54;4.40;;;0.91;;
17741;SDS011;8993;51.822;-2.268;2022-07-29T18:08:58;3.97;;;0.83;;
17741;SDS011;8993;51.822;-2.268;2022-07-29T18:14:02;5.05;;;0.86;;
17741;SDS011;8993;51.822;-2.268;2022-07-29T18:19:07;4.82;;;0.92;;
17741;SDS011;8993;51.822;-2.268;2022-07-29T18:24:11;2.16;;;0.76;;
17741;SDS011;8993;51.822;-2.268;2022-07-29T18:29:15;2.54;;;1.03;;
17741;SDS011;8993;51.822;-2.268;2022-07-29T18:34:20;4.39;;;1.07;;
17741;SDS011;8993;51.822;-2.268;2022-07-29T18:39:24;4.25;;;0.92;;
17741;SDS011;8993;51.822;-2.268;2022-07-29T18:44:29;2.56;;;0.76;;
17741;SDS011;8993;51.822;-2.268;2022-07-29T18:49:33;3.59;;;0.81;;
17741;SDS011;8993;51.822;-2.268;2022-07-29T18:54:38;2.37;;;0.79;;
17741;SDS011;8993;51.822;-2.268;2022-07-29T18:59:42;1.71;;;0.73;;
17741;SDS011;8993;51.822;-2.268;2022-07-29T19:04:48;3.92;;;0.79;;
17741;SDS011;8993;51.822;-2.268;2022-07-29T19:09:52;3.03;;;0.78;;
17741;SDS011;8993;51.822;-2.268;2022-07-29T19:14:57;4.06;;;1.05;;
17741;SDS011;8993;51.822;-2.268;2022-07-29T19:20:02;4.47;;;1.04;;
17741;SDS011;8993;51.822;-2.268;2022-07-29T19:25:06;3.89;;;1.04;;
17741;SDS011;8993;51.822;-2.268;2022-07-29T19:30:11;6.52;;;1.03;;
17741;SDS011;8993;51.822;-2.268;2022-07-29T19:35:16;3.44;;;0.90;;
17741;SDS011;8993;51.822;-2.268;2022-07-29T19:40:20;5.85;;;1.02;;
17741;SDS011;8993;51.822;-2.268;2022-07-29T19:45:24;5.65;;;1.15;;
17741;SDS011;8993;51.822;-2.268;2022-07-29T19:50:28;3.45;;;0.85;;
17741;SDS011;8993;51.822;-2.268;2022-07-29T19:55:33;4.57;;;1.05;;
17741;SDS011;8993;51.822;-2.268;2022-07-29T20:00:37;7.64;;;1.07;;
17741;SDS011;8993;51.822;-2.268;2022-07-29T20:05:41;3.62;;;0.97;;
17741;SDS011;8993;51.822;-2.268;2022-07-29T20:10:45;6.07;;;1.48;;
17741;SDS011;8993;51.822;-2.268;2022-07-29T20:15:50;6.98;;;1.56;;
17741;SDS011;8993;51.822;-2.268;2022-07-29T20:20:54;6.31;;;1.50;;
17741;SDS011;8993;51.822;-2.268;2022-07-29T20:25:59;9.33;;;1.96;;
17741;SDS011;8993;51.822;-2.268;2022-07-29T20:31:03;11.22;;;2.15;;
17741;SDS011;8993;51.822;-2.268;2022-07-29T20:36:07;5.58;;;1.01;;
17741;SDS011;8993;51.822;-2.268;2022-07-29T20:41:12;7.14;;;1.10;;
17741;SDS011;8993;51.822;-2.268;2022-07-29T20:46:16;5.88;;;1.30;;
17741;SDS011;8993;51.822;-2.268;2022-07-29T20:51:20;5.66;;;1.05;;
17741;SDS011;8993;51.822;-2.268;2022-07-29T20:56:25;6.43;;;1.19;;
17741;SDS011;8993;51.822;-2.268;2022-07-29T21:01:29;3.44;;;1.15;;
17741;SDS011;8993;51.822;-2.268;2022-07-29T21:06:33;4.26;;;1.00;;
17741;SDS011;8993;51.822;-2.268;2022-07-29T21:11:37;4.27;;;1.11;;
17741;SDS011;8993;51.822;-2.268;2022-07-29T21:16:43;3.52;;;0.97;;
17741;SDS011;8993;51.822;-2.268;2022-07-29T21:21:47;3.13;;;0.92;;
17741;SDS011;8993;51.822;-2.268;2022-07-29T21:26:51;8.21;;;1.19;;
17741;SDS011;8993;51.822;-2.268;2022-07-29T21:31:56;5.01;;;1.16;;
17741;SDS011;8993;51.822;-2.268;2022-07-29T21:37:00;4.31;;;1.20;;
17741;SDS011;8993;51.822;-2.268;2022-07-29T21:42:05;5.28;;;1.39;;
17741;SDS011;8993;51.822;-2.268;2022-07-29T21:47:09;6.66;;;1.45;;
17741;SDS011;8993;51.822;-2.268;2022-07-29T21:52:13;7.13;;;1.36;;
17741;SDS011;8993;51.822;-2.268;2022-07-29T21:57:22;5.12;;;1.34;;
17741;SDS011;8993;51.822;-2.268;2022-07-29T22:02:26;6.70;;;1.45;;
17741;SDS011;8993;51.822;-2.268;2022-07-29T22:12:36;6.81;;;1.45;;
17741;SDS011;8993;51.822;-2.268;2022-07-29T22:17:41;4.83;;;1.59;;
17741;SDS011;8993;51.822;-2.268;2022-07-29T22:22:45;5.47;;;1.51;;
17741;SDS011;8993;51.822;-2.268;2022-07-29T22:27:49;6.69;;;1.60;;
17741;SDS011;8993;51.822;-2.268;2022-07-29T22:32:53;5.66;;;1.77;;
17741;SDS011;8993;51.822;-2.268;2022-07-29T22:37:58;7.33;;;1.77;;
17741;SDS011;8993;51.822;-2.268;2022-07-29T22:43:02;8.31;;;1.90;;
17741;SDS011;8993;51.822;-2.268;2022-07-29T22:53:13;7.55;;;1.81;;
17741;SDS011;8993;51.822;-2.268;2022-07-29T22:58:18;8.13;;;1.94;;
17741;SDS011;8993;51.822;-2.268;2022-07-29T23:03:22;8.80;;;2.35;;
17741;SDS011;8993;51.822;-2.268;2022-07-29T23:08:27;5.56;;;2.09;;
17741;SDS011;8993;51.822;-2.268;2022-07-29T23:13:31;6.41;;;1.89;;
17741;SDS011;8993;51.822;-2.268;2022-07-29T23:18:36;5.44;;;2.12;;
17741;SDS011;8993;51.822;-2.268;2022-07-29T23:23:39;8.22;;;2.59;;
17741;SDS011;8993;51.822;-2.268;2022-07-29T23:28:44;9.10;;;2.84;;
17741;SDS011;8993;51.822;-2.268;2022-07-29T23:33:48;7.39;;;3.05;;
17741;SDS011;8993;51.822;-2.268;2022-07-29T23:38:56;13.12;;;4.19;;
17741;SDS011;8993;51.822;-2.268;2022-07-29T23:44:00;10.22;;;4.09;;
17741;SDS011;8993;51.822;-2.268;2022-07-29T23:54:10;9.96;;;4.13;;
17741;SDS011;8993;51.822;-2.268;2022-07-29T23:59:15;10.93;;;4.10;;
